sensor_id;sensor_type;location;lat;lon;timestamp;P1;durP1;ratioP1;P2;durP2;ratioP2
5137;SDS011;53959;53.626;11.410;2022-12-17T00:02:17;64.80;;;28.87;;
5137;SDS011;53959;53.626;11.410;2022-12-17T00:05:01;76.40;;;31.80;;
5137;SDS011;53959;53.626;11.410;2022-12-17T00:07:45;63.40;;;30.83;;
5137;SDS011;53959;53.626;11.410;2022-12-17T00:10:29;68.30;;;30.23;;
5137;SDS011;53959;53.626;11.410;2022-12-17T00:13:16;68.67;;;29.87;;
5137;SDS011;53959;53.626;11.410;2022-12-17T00:16:02;65.97;;;30.60;;
5137;SDS011;53959;53.626;11.410;2022-12-17T00:18:47;62.20;;;28.47;;
5137;SDS011;53959;53.626;11.410;2022-12-17T00:21:31;64.07;;;28.87;;
5137;SDS011;53959;53.626;11.410;2022-12-17T00:24:15;72.00;;;29.30;;
5137;SDS011;53959;53.626;11.410;2022-12-17T00:26:59;68.03;;;32.47;;
5137;SDS011;53959;53.626;11.410;2022-12-17T00:29:43;77.97;;;32.17;;
5137;SDS011;53959;53.626;11.410;2022-12-17T00:32:27;71.80;;;30.23;;
5137;SDS011;53959;53.626;11.410;2022-12-17T00:35:11;71.07;;;31.10;;
5137;SDS011;53959;53.626;11.410;2022-12-17T00:37:55;67.83;;;31.77;;
5137;SDS011;53959;53.626;11.410;2022-12-17T00:40:59;84.83;;;32.00;;
5137;SDS011;53959;53.626;11.410;2022-12-17T00:43:43;67.50;;;30.57;;
5137;SDS011;53959;53.626;11.410;2022-12-17T00:46:26;86.80;;;32.87;;
5137;SDS011;53959;53.626;11.410;2022-12-17T00:49:30;75.73;;;30.47;;
5137;SDS011;53959;53.626;11.410;2022-12-17T00:52:15;62.00;;;28.13;;
5137;SDS011;53959;53.626;11.410;2022-12-17T00:54:59;77.80;;;31.20;;
5137;SDS011;53959;53.626;11.410;2022-12-17T00:57:43;64.57;;;28.27;;
5137;SDS011;53959;53.626;11.410;2022-12-17T01:00:27;73.50;;;28.20;;
5137;SDS011;53959;53.626;11.410;2022-12-17T01:03:12;85.90;;;30.80;;
5137;SDS011;53959;53.626;11.410;2022-12-17T01:06:01;74.67;;;31.57;;
5137;SDS011;53959;53.626;11.410;2022-12-17T01:08:46;78.30;;;30.67;;
5137;SDS011;53959;53.626;11.410;2022-12-17T01:11:30;79.47;;;32.53;;
5137;SDS011;53959;53.626;11.410;2022-12-17T01:14:14;74.77;;;30.50;;
5137;SDS011;53959;53.626;11.410;2022-12-17T01:16:58;78.93;;;31.47;;
5137;SDS011;53959;53.626;11.410;2022-12-17T01:19:42;81.37;;;31.13;;
5137;SDS011;53959;53.626;11.410;2022-12-17T01:22:26;68.10;;;31.27;;
5137;SDS011;53959;53.626;11.410;2022-12-17T01:25:10;65.83;;;30.73;;
5137;SDS011;53959;53.626;11.410;2022-12-17T01:27:54;67.70;;;29.90;;
5137;SDS011;53959;53.626;11.410;2022-12-17T01:30:38;80.70;;;31.43;;
5137;SDS011;53959;53.626;11.410;2022-12-17T01:33:22;60.60;;;27.47;;
5137;SDS011;53959;53.626;11.410;2022-12-17T01:36:06;71.57;;;30.00;;
5137;SDS011;53959;53.626;11.410;2022-12-17T01:38:52;79.83;;;31.00;;
5137;SDS011;53959;53.626;11.410;2022-12-17T01:41:36;80.53;;;32.50;;
5137;SDS011;53959;53.626;11.410;2022-12-17T01:47:51;78.60;;;32.60;;
5137;SDS011;53959;53.626;11.410;2022-12-17T01:50:46;78.17;;;32.40;;
5137;SDS011;53959;53.626;11.410;2022-12-17T01:53:36;64.70;;;29.50;;
5137;SDS011;53959;53.626;11.410;2022-12-17T01:56:24;79.50;;;34.17;;
5137;SDS011;53959;53.626;11.410;2022-12-17T01:59:08;85.60;;;33.60;;
5137;SDS011;53959;53.626;11.410;2022-12-17T02:01:54;85.83;;;34.17;;
5137;SDS011;53959;53.626;11.410;2022-12-17T02:04:38;75.23;;;33.40;;
5137;SDS011;53959;53.626;11.410;2022-12-17T02:10:28;70.50;;;29.27;;
5137;SDS011;53959;53.626;11.410;2022-12-17T02:13:33;85.73;;;30.63;;
5137;SDS011;53959;53.626;11.410;2022-12-17T02:16:23;58.70;;;25.10;;
5137;SDS011;53959;53.626;11.410;2022-12-17T02:19:22;51.73;;;20.97;;
5137;SDS011;53959;53.626;11.410;2022-12-17T02:22:29;54.07;;;23.20;;
5137;SDS011;53959;53.626;11.410;2022-12-17T02:28:46;60.47;;;24.50;;
5137;SDS011;53959;53.626;11.410;2022-12-17T02:31:33;60.10;;;23.70;;
5137;SDS011;53959;53.626;11.410;2022-12-17T02:34:20;50.33;;;21.67;;
5137;SDS011;53959;53.626;11.410;2022-12-17T02:37:04;54.90;;;23.60;;
5137;SDS011;53959;53.626;11.410;2022-12-17T02:39:48;58.50;;;22.67;;
5137;SDS011;53959;53.626;11.410;2022-12-17T02:42:32;60.70;;;24.50;;
5137;SDS011;53959;53.626;11.410;2022-12-17T02:45:17;57.47;;;24.73;;
5137;SDS011;53959;53.626;11.410;2022-12-17T02:48:02;69.17;;;25.43;;
5137;SDS011;53959;53.626;11.410;2022-12-17T02:50:48;55.43;;;22.20;;
5137;SDS011;53959;53.626;11.410;2022-12-17T02:53:33;53.23;;;23.00;;
5137;SDS011;53959;53.626;11.410;2022-12-17T02:56:23;56.13;;;22.77;;
5137;SDS011;53959;53.626;11.410;2022-12-17T02:59:07;49.90;;;21.27;;
5137;SDS011;53959;53.626;11.410;2022-12-17T03:01:51;49.40;;;21.97;;
5137;SDS011;53959;53.626;11.410;2022-12-17T03:04:36;53.63;;;21.10;;
5137;SDS011;53959;53.626;11.410;2022-12-17T03:07:36;45.50;;;21.60;;
5137;SDS011;53959;53.626;11.410;2022-12-17T03:10:20;46.83;;;20.80;;
5137;SDS011;53959;53.626;11.410;2022-12-17T03:13:04;52.20;;;21.97;;
5137;SDS011;53959;53.626;11.410;2022-12-17T03:15:48;44.90;;;20.87;;
5137;SDS011;53959;53.626;11.410;2022-12-17T03:18:32;41.53;;;19.63;;
5137;SDS011;53959;53.626;11.410;2022-12-17T03:21:16;50.30;;;20.63;;
5137;SDS011;53959;53.626;11.410;2022-12-17T03:24:00;50.63;;;21.03;;
5137;SDS011;53959;53.626;11.410;2022-12-17T03:26:45;57.80;;;22.40;;
5137;SDS011;53959;53.626;11.410;2022-12-17T03:29:28;49.80;;;23.07;;
5137;SDS011;53959;53.626;11.410;2022-12-17T03:32:13;49.87;;;20.40;;
5137;SDS011;53959;53.626;11.410;2022-12-17T03:34:57;45.57;;;19.70;;
5137;SDS011;53959;53.626;11.410;2022-12-17T03:37:41;47.10;;;19.90;;
5137;SDS011;53959;53.626;11.410;2022-12-17T03:40:25;48.67;;;18.70;;
5137;SDS011;53959;53.626;11.410;2022-12-17T03:43:29;45.13;;;19.63;;
5137;SDS011;53959;53.626;11.410;2022-12-17T03:46:13;51.20;;;20.37;;
5137;SDS011;53959;53.626;11.410;2022-12-17T03:48:57;51.00;;;21.10;;
5137;SDS011;53959;53.626;11.410;2022-12-17T03:51:41;44.10;;;19.90;;
5137;SDS011;53959;53.626;11.410;2022-12-17T03:54:25;51.03;;;19.30;;
5137;SDS011;53959;53.626;11.410;2022-12-17T03:57:09;38.87;;;19.83;;
5137;SDS011;53959;53.626;11.410;2022-12-17T03:59:53;51.07;;;21.70;;
5137;SDS011;53959;53.626;11.410;2022-12-17T04:02:37;41.40;;;18.37;;
5137;SDS011;53959;53.626;11.410;2022-12-17T04:05:21;48.80;;;19.80;;
5137;SDS011;53959;53.626;11.410;2022-12-17T04:08:06;39.00;;;17.27;;
5137;SDS011;53959;53.626;11.410;2022-12-17T04:10:50;41.87;;;20.33;;
5137;SDS011;53959;53.626;11.410;2022-12-17T04:13:34;45.60;;;20.43;;
5137;SDS011;53959;53.626;11.410;2022-12-17T04:16:18;46.47;;;18.57;;
5137;SDS011;53959;53.626;11.410;2022-12-17T04:19:02;44.10;;;18.10;;
5137;SDS011;53959;53.626;11.410;2022-12-17T04:21:46;48.87;;;19.87;;
5137;SDS011;53959;53.626;11.410;2022-12-17T04:24:30;111.93;;;20.77;;
5137;SDS011;53959;53.626;11.410;2022-12-17T04:27:14;71.87;;;17.77;;
5137;SDS011;53959;53.626;11.410;2022-12-17T04:29:58;200.43;;;21.57;;
5137;SDS011;53959;53.626;11.410;2022-12-17T04:32:42;136.37;;;20.73;;
5137;SDS011;53959;53.626;11.410;2022-12-17T04:35:26;167.93;;;20.17;;
5137;SDS011;53959;53.626;11.410;2022-12-17T04:38:10;97.53;;;20.60;;
5137;SDS011;53959;53.626;11.410;2022-12-17T04:40:54;125.20;;;20.60;;
5137;SDS011;53959;53.626;11.410;2022-12-17T04:43:38;149.60;;;22.20;;
5137;SDS011;53959;53.626;11.410;2022-12-17T04:46:22;151.20;;;21.27;;
5137;SDS011;53959;53.626;11.410;2022-12-17T04:49:06;178.47;;;21.70;;
5137;SDS011;53959;53.626;11.410;2022-12-17T04:51:50;150.30;;;22.20;;
5137;SDS011;53959;53.626;11.410;2022-12-17T04:54:34;113.27;;;23.17;;
5137;SDS011;53959;53.626;11.410;2022-12-17T04:57:19;131.87;;;20.70;;
5137;SDS011;53959;53.626;11.410;2022-12-17T05:00:03;70.70;;;20.40;;
5137;SDS011;53959;53.626;11.410;2022-12-17T05:02:47;106.40;;;22.57;;
5137;SDS011;53959;53.626;11.410;2022-12-17T05:05:31;99.17;;;21.37;;
5137;SDS011;53959;53.626;11.410;2022-12-17T05:08:15;64.97;;;22.20;;
5137;SDS011;53959;53.626;11.410;2022-12-17T05:11:00;98.23;;;21.70;;
5137;SDS011;53959;53.626;11.410;2022-12-17T05:13:45;130.37;;;22.47;;
5137;SDS011;53959;53.626;11.410;2022-12-17T05:16:29;144.73;;;21.50;;
5137;SDS011;53959;53.626;11.410;2022-12-17T05:19:13;163.03;;;22.90;;
5137;SDS011;53959;53.626;11.410;2022-12-17T05:21:57;137.40;;;23.33;;
5137;SDS011;53959;53.626;11.410;2022-12-17T05:24:41;183.97;;;23.20;;
5137;SDS011;53959;53.626;11.410;2022-12-17T05:27:25;223.63;;;25.23;;
5137;SDS011;53959;53.626;11.410;2022-12-17T05:30:10;199.87;;;24.60;;
5137;SDS011;53959;53.626;11.410;2022-12-17T05:33:00;335.80;;;27.50;;
5137;SDS011;53959;53.626;11.410;2022-12-17T05:35:45;298.60;;;24.00;;
5137;SDS011;53959;53.626;11.410;2022-12-17T05:38:30;208.87;;;23.57;;
5137;SDS011;53959;53.626;11.410;2022-12-17T05:41:14;267.60;;;22.07;;
5137;SDS011;53959;53.626;11.410;2022-12-17T05:43:58;209.53;;;22.83;;
5137;SDS011;53959;53.626;11.410;2022-12-17T05:46:52;227.57;;;24.20;;
5137;SDS011;53959;53.626;11.410;2022-12-17T05:49:37;159.07;;;23.60;;
5137;SDS011;53959;53.626;11.410;2022-12-17T05:52:21;205.87;;;25.30;;
5137;SDS011;53959;53.626;11.410;2022-12-17T05:55:05;297.70;;;25.10;;
5137;SDS011;53959;53.626;11.410;2022-12-17T05:57:49;263.97;;;24.57;;
5137;SDS011;53959;53.626;11.410;2022-12-17T06:00:33;245.13;;;26.00;;
5137;SDS011;53959;53.626;11.410;2022-12-17T06:03:17;149.57;;;22.83;;
5137;SDS011;53959;53.626;11.410;2022-12-17T06:06:01;194.97;;;25.93;;
5137;SDS011;53959;53.626;11.410;2022-12-17T06:08:46;125.70;;;25.60;;
5137;SDS011;53959;53.626;11.410;2022-12-17T06:11:30;211.77;;;27.30;;
5137;SDS011;53959;53.626;11.410;2022-12-17T06:14:14;108.13;;;26.50;;
5137;SDS011;53959;53.626;11.410;2022-12-17T06:16:58;177.73;;;29.40;;
5137;SDS011;53959;53.626;11.410;2022-12-17T06:19:58;248.90;;;29.70;;
5137;SDS011;53959;53.626;11.410;2022-12-17T06:22:43;308.13;;;25.50;;
5137;SDS011;53959;53.626;11.410;2022-12-17T06:25:27;254.67;;;27.13;;
5137;SDS011;53959;53.626;11.410;2022-12-17T06:28:11;261.57;;;27.00;;
5137;SDS011;53959;53.626;11.410;2022-12-17T06:30:55;312.43;;;29.90;;
5137;SDS011;53959;53.626;11.410;2022-12-17T06:33:39;317.10;;;30.00;;
5137;SDS011;53959;53.626;11.410;2022-12-17T06:36:24;213.33;;;29.50;;
5137;SDS011;53959;53.626;11.410;2022-12-17T06:39:08;338.77;;;30.67;;
5137;SDS011;53959;53.626;11.410;2022-12-17T06:41:53;370.23;;;33.67;;
5137;SDS011;53959;53.626;11.410;2022-12-17T06:44:37;307.27;;;36.60;;
5137;SDS011;53959;53.626;11.410;2022-12-17T06:47:21;196.77;;;32.70;;
5137;SDS011;53959;53.626;11.410;2022-12-17T06:50:06;250.47;;;33.00;;
5137;SDS011;53959;53.626;11.410;2022-12-17T06:53:23;166.20;;;34.13;;
5137;SDS011;53959;53.626;11.410;2022-12-17T06:56:01;173.43;;;35.30;;
5137;SDS011;53959;53.626;11.410;2022-12-17T06:58:45;119.70;;;38.37;;
5137;SDS011;53959;53.626;11.410;2022-12-17T07:01:28;132.93;;;36.80;;
5137;SDS011;53959;53.626;11.410;2022-12-17T07:04:13;107.23;;;34.07;;
5137;SDS011;53959;53.626;11.410;2022-12-17T07:06:56;113.70;;;38.57;;
5137;SDS011;53959;53.626;11.410;2022-12-17T07:09:40;123.43;;;38.83;;
5137;SDS011;53959;53.626;11.410;2022-12-17T07:12:25;118.63;;;38.83;;
5137;SDS011;53959;53.626;11.410;2022-12-17T07:15:09;142.13;;;41.70;;
5137;SDS011;53959;53.626;11.410;2022-12-17T07:17:54;107.33;;;38.97;;
5137;SDS011;53959;53.626;11.410;2022-12-17T07:20:39;104.73;;;35.57;;
5137;SDS011;53959;53.626;11.410;2022-12-17T07:23:24;114.27;;;38.20;;
5137;SDS011;53959;53.626;11.410;2022-12-17T07:26:08;132.03;;;43.50;;
5137;SDS011;53959;53.626;11.410;2022-12-17T07:28:52;122.77;;;40.37;;
5137;SDS011;53959;53.626;11.410;2022-12-17T07:31:36;118.57;;;41.10;;
5137;SDS011;53959;53.626;11.410;2022-12-17T07:34:20;129.30;;;39.73;;
5137;SDS011;53959;53.626;11.410;2022-12-17T07:37:04;125.40;;;43.23;;
5137;SDS011;53959;53.626;11.410;2022-12-17T07:39:48;112.00;;;38.77;;
5137;SDS011;53959;53.626;11.410;2022-12-17T07:42:32;105.67;;;37.57;;
5137;SDS011;53959;53.626;11.410;2022-12-17T07:45:16;97.47;;;35.90;;
5137;SDS011;53959;53.626;11.410;2022-12-17T07:48:00;108.50;;;37.37;;
5137;SDS011;53959;53.626;11.410;2022-12-17T07:50:47;106.80;;;36.17;;
5137;SDS011;53959;53.626;11.410;2022-12-17T07:53:32;90.80;;;35.80;;
5137;SDS011;53959;53.626;11.410;2022-12-17T07:56:16;104.17;;;39.70;;
5137;SDS011;53959;53.626;11.410;2022-12-17T07:59:00;116.30;;;36.40;;
5137;SDS011;53959;53.626;11.410;2022-12-17T08:01:44;94.93;;;40.47;;
5137;SDS011;53959;53.626;11.410;2022-12-17T08:04:28;103.50;;;40.27;;
5137;SDS011;53959;53.626;11.410;2022-12-17T08:07:12;96.93;;;36.90;;
5137;SDS011;53959;53.626;11.410;2022-12-17T08:09:56;98.40;;;36.00;;
5137;SDS011;53959;53.626;11.410;2022-12-17T08:12:40;94.27;;;39.00;;
5137;SDS011;53959;53.626;11.410;2022-12-17T08:15:24;109.53;;;42.57;;
5137;SDS011;53959;53.626;11.410;2022-12-17T08:18:08;91.13;;;34.70;;
5137;SDS011;53959;53.626;11.410;2022-12-17T08:20:52;84.23;;;37.43;;
5137;SDS011;53959;53.626;11.410;2022-12-17T08:23:37;103.03;;;38.27;;
5137;SDS011;53959;53.626;11.410;2022-12-17T08:26:21;102.17;;;42.07;;
5137;SDS011;53959;53.626;11.410;2022-12-17T08:29:05;86.27;;;35.77;;
5137;SDS011;53959;53.626;11.410;2022-12-17T08:31:49;117.07;;;44.40;;
5137;SDS011;53959;53.626;11.410;2022-12-17T08:34:33;75.03;;;32.10;;
5137;SDS011;53959;53.626;11.410;2022-12-17T08:37:17;86.87;;;36.70;;
5137;SDS011;53959;53.626;11.410;2022-12-17T08:40:06;80.40;;;34.33;;
5137;SDS011;53959;53.626;11.410;2022-12-17T08:42:55;72.17;;;30.23;;
5137;SDS011;53959;53.626;11.410;2022-12-17T08:45:44;67.87;;;33.60;;
5137;SDS011;53959;53.626;11.410;2022-12-17T09:00:34;81.13;;;36.10;;
5137;SDS011;53959;53.626;11.410;2022-12-17T09:03:19;174.77;;;62.70;;
5137;SDS011;53959;53.626;11.410;2022-12-17T09:06:03;88.63;;;36.20;;
5137;SDS011;53959;53.626;11.410;2022-12-17T09:08:47;96.50;;;37.10;;
5137;SDS011;53959;53.626;11.410;2022-12-17T09:11:31;93.33;;;37.87;;
5137;SDS011;53959;53.626;11.410;2022-12-17T09:14:15;103.93;;;38.33;;
5137;SDS011;53959;53.626;11.410;2022-12-17T09:16:59;162.27;;;50.73;;
5137;SDS011;53959;53.626;11.410;2022-12-17T09:19:43;144.57;;;49.97;;
5137;SDS011;53959;53.626;11.410;2022-12-17T09:22:27;80.13;;;34.50;;
5137;SDS011;53959;53.626;11.410;2022-12-17T09:25:11;85.70;;;35.83;;
5137;SDS011;53959;53.626;11.410;2022-12-17T09:27:58;106.93;;;42.17;;
5137;SDS011;53959;53.626;11.410;2022-12-17T09:30:43;107.77;;;42.10;;
5137;SDS011;53959;53.626;11.410;2022-12-17T09:33:27;101.13;;;43.13;;
5137;SDS011;53959;53.626;11.410;2022-12-17T09:36:11;87.57;;;34.83;;
5137;SDS011;53959;53.626;11.410;2022-12-17T09:38:55;116.97;;;43.43;;
5137;SDS011;53959;53.626;11.410;2022-12-17T09:48:01;79.60;;;36.03;;
5137;SDS011;53959;53.626;11.410;2022-12-17T09:51:01;81.53;;;35.70;;
5137;SDS011;53959;53.626;11.410;2022-12-17T09:53:54;73.00;;;35.00;;
5137;SDS011;53959;53.626;11.410;2022-12-17T09:56:38;93.83;;;37.00;;
5137;SDS011;53959;53.626;11.410;2022-12-17T09:59:27;74.27;;;34.57;;
5137;SDS011;53959;53.626;11.410;2022-12-17T10:02:16;83.57;;;36.03;;
5137;SDS011;53959;53.626;11.410;2022-12-17T10:05:06;88.63;;;37.07;;
5137;SDS011;53959;53.626;11.410;2022-12-17T10:07:56;89.53;;;36.70;;
5137;SDS011;53959;53.626;11.410;2022-12-17T10:10:43;92.90;;;36.87;;
5137;SDS011;53959;53.626;11.410;2022-12-17T10:13:28;86.30;;;36.47;;
5137;SDS011;53959;53.626;11.410;2022-12-17T10:16:25;99.30;;;39.90;;
5137;SDS011;53959;53.626;11.410;2022-12-17T10:19:22;100.97;;;41.10;;
5137;SDS011;53959;53.626;11.410;2022-12-17T10:22:12;93.67;;;38.87;;
5137;SDS011;53959;53.626;11.410;2022-12-17T10:28:01;118.43;;;43.83;;
5137;SDS011;53959;53.626;11.410;2022-12-17T10:30:49;113.80;;;42.93;;
5137;SDS011;53959;53.626;11.410;2022-12-17T10:33:37;90.70;;;40.40;;
5137;SDS011;53959;53.626;11.410;2022-12-17T10:36:22;98.30;;;42.03;;
5137;SDS011;53959;53.626;11.410;2022-12-17T10:39:15;102.67;;;38.70;;
5137;SDS011;53959;53.626;11.410;2022-12-17T10:42:02;81.53;;;39.43;;
5137;SDS011;53959;53.626;11.410;2022-12-17T10:45:13;101.67;;;38.60;;
5137;SDS011;53959;53.626;11.410;2022-12-17T10:48:01;102.17;;;39.40;;
5137;SDS011;53959;53.626;11.410;2022-12-17T10:50:45;99.37;;;41.20;;
5137;SDS011;53959;53.626;11.410;2022-12-17T10:53:29;108.93;;;41.00;;
5137;SDS011;53959;53.626;11.410;2022-12-17T10:56:24;94.80;;;40.67;;
5137;SDS011;53959;53.626;11.410;2022-12-17T10:59:12;90.13;;;41.83;;
5137;SDS011;53959;53.626;11.410;2022-12-17T11:02:11;93.43;;;38.87;;
5137;SDS011;53959;53.626;11.410;2022-12-17T11:05:02;82.47;;;38.23;;
5137;SDS011;53959;53.626;11.410;2022-12-17T11:08:02;96.50;;;40.93;;
5137;SDS011;53959;53.626;11.410;2022-12-17T11:10:46;107.93;;;42.93;;
5137;SDS011;53959;53.626;11.410;2022-12-17T11:14:14;92.33;;;40.20;;
5137;SDS011;53959;53.626;11.410;2022-12-17T11:16:42;88.67;;;39.77;;
5137;SDS011;53959;53.626;11.410;2022-12-17T11:19:41;97.87;;;42.20;;
5137;SDS011;53959;53.626;11.410;2022-12-17T11:22:34;100.30;;;41.90;;
5137;SDS011;53959;53.626;11.410;2022-12-17T11:28:34;98.57;;;42.60;;
5137;SDS011;53959;53.626;11.410;2022-12-17T11:34:10;110.23;;;45.83;;
5137;SDS011;53959;53.626;11.410;2022-12-17T11:37:12;96.43;;;40.10;;
5137;SDS011;53959;53.626;11.410;2022-12-17T11:49:27;103.17;;;40.57;;
5137;SDS011;53959;53.626;11.410;2022-12-17T11:58:40;118.73;;;47.00;;
5137;SDS011;53959;53.626;11.410;2022-12-17T12:01:41;109.50;;;44.20;;
5137;SDS011;53959;53.626;11.410;2022-12-17T12:07:52;108.37;;;44.33;;
5137;SDS011;53959;53.626;11.410;2022-12-17T12:13:54;114.87;;;41.50;;
5137;SDS011;53959;53.626;11.410;2022-12-17T12:17:01;109.70;;;42.73;;
5137;SDS011;53959;53.626;11.410;2022-12-17T12:20:23;104.93;;;42.23;;
5137;SDS011;53959;53.626;11.410;2022-12-17T12:26:40;88.83;;;37.77;;
5137;SDS011;53959;53.626;11.410;2022-12-17T12:29:37;96.20;;;40.60;;
5137;SDS011;53959;53.626;11.410;2022-12-17T12:32:39;84.30;;;37.77;;
5137;SDS011;53959;53.626;11.410;2022-12-17T12:35:41;96.03;;;37.83;;
5137;SDS011;53959;53.626;11.410;2022-12-17T12:38:27;85.47;;;38.97;;
5137;SDS011;53959;53.626;11.410;2022-12-17T12:41:18;91.93;;;37.63;;
5137;SDS011;53959;53.626;11.410;2022-12-17T12:44:35;99.87;;;41.47;;
5137;SDS011;53959;53.626;11.410;2022-12-17T12:53:18;108.17;;;43.73;;
5137;SDS011;53959;53.626;11.410;2022-12-17T12:56:03;105.80;;;41.03;;
5137;SDS011;53959;53.626;11.410;2022-12-17T12:58:48;87.83;;;40.03;;
5137;SDS011;53959;53.626;11.410;2022-12-17T13:01:33;101.00;;;40.70;;
5137;SDS011;53959;53.626;11.410;2022-12-17T13:04:23;89.63;;;41.10;;
5137;SDS011;53959;53.626;11.410;2022-12-17T13:09:52;92.83;;;38.97;;
5137;SDS011;53959;53.626;11.410;2022-12-17T13:12:26;102.80;;;41.00;;
5137;SDS011;53959;53.626;11.410;2022-12-17T13:20:29;102.93;;;41.20;;
5137;SDS011;53959;53.626;11.410;2022-12-17T13:23:12;103.47;;;41.97;;
5137;SDS011;53959;53.626;11.410;2022-12-17T13:26:01;106.33;;;42.87;;
5137;SDS011;53959;53.626;11.410;2022-12-17T13:28:36;102.10;;;41.50;;
5137;SDS011;53959;53.626;11.410;2022-12-17T13:31:03;106.33;;;41.93;;
5137;SDS011;53959;53.626;11.410;2022-12-17T13:33:52;96.47;;;40.80;;
5137;SDS011;53959;53.626;11.410;2022-12-17T13:36:52;83.77;;;40.50;;
5137;SDS011;53959;53.626;11.410;2022-12-17T13:39:35;85.80;;;37.70;;
5137;SDS011;53959;53.626;11.410;2022-12-17T13:42:27;75.40;;;34.53;;
5137;SDS011;53959;53.626;11.410;2022-12-17T13:44:55;66.30;;;31.43;;
5137;SDS011;53959;53.626;11.410;2022-12-17T13:47:23;61.43;;;30.43;;
5137;SDS011;53959;53.626;11.410;2022-12-17T13:49:55;59.20;;;29.50;;
5137;SDS011;53959;53.626;11.410;2022-12-17T13:52:26;53.97;;;28.30;;
5137;SDS011;53959;53.626;11.410;2022-12-17T13:55:04;54.00;;;25.87;;
5137;SDS011;53959;53.626;11.410;2022-12-17T13:57:31;57.20;;;27.20;;
5137;SDS011;53959;53.626;11.410;2022-12-17T13:59:58;52.17;;;29.40;;
5137;SDS011;53959;53.626;11.410;2022-12-17T14:02:27;67.73;;;29.70;;
5137;SDS011;53959;53.626;11.410;2022-12-17T14:05:03;55.23;;;28.50;;
5137;SDS011;53959;53.626;11.410;2022-12-17T14:07:31;49.63;;;27.33;;
5137;SDS011;53959;53.626;11.410;2022-12-17T14:09:58;64.17;;;28.43;;
5137;SDS011;53959;53.626;11.410;2022-12-17T14:12:25;61.90;;;27.93;;
5137;SDS011;53959;53.626;11.410;2022-12-17T14:15:01;54.00;;;27.30;;
5137;SDS011;53959;53.626;11.410;2022-12-17T14:17:34;65.47;;;28.43;;
5137;SDS011;53959;53.626;11.410;2022-12-17T14:25:03;74.57;;;32.00;;
5137;SDS011;53959;53.626;11.410;2022-12-17T14:27:37;62.17;;;28.37;;
5137;SDS011;53959;53.626;11.410;2022-12-17T14:30:18;69.83;;;30.57;;
5137;SDS011;53959;53.626;11.410;2022-12-17T14:32:47;62.43;;;30.33;;
5137;SDS011;53959;53.626;11.410;2022-12-17T14:38:16;63.93;;;30.90;;
5137;SDS011;53959;53.626;11.410;2022-12-17T14:40:42;57.40;;;28.37;;
5137;SDS011;53959;53.626;11.410;2022-12-17T14:43:08;57.30;;;27.80;;
5137;SDS011;53959;53.626;11.410;2022-12-17T14:45:37;77.80;;;34.60;;
5137;SDS011;53959;53.626;11.410;2022-12-17T14:48:24;67.77;;;31.63;;
5137;SDS011;53959;53.626;11.410;2022-12-17T14:51:22;58.73;;;29.00;;
5137;SDS011;53959;53.626;11.410;2022-12-17T14:53:52;63.20;;;28.40;;
5137;SDS011;53959;53.626;11.410;2022-12-17T14:56:20;61.90;;;28.80;;
5137;SDS011;53959;53.626;11.410;2022-12-17T14:58:47;59.77;;;27.90;;
5137;SDS011;53959;53.626;11.410;2022-12-17T15:01:12;71.17;;;31.50;;
5137;SDS011;53959;53.626;11.410;2022-12-17T15:03:41;61.13;;;28.87;;
5137;SDS011;53959;53.626;11.410;2022-12-17T15:06:10;72.77;;;29.53;;
5137;SDS011;53959;53.626;11.410;2022-12-17T15:08:41;60.70;;;29.10;;
5137;SDS011;53959;53.626;11.410;2022-12-17T15:11:09;56.00;;;25.40;;
5137;SDS011;53959;53.626;11.410;2022-12-17T15:13:37;55.63;;;27.33;;
5137;SDS011;53959;53.626;11.410;2022-12-17T15:16:03;65.77;;;30.00;;
5137;SDS011;53959;53.626;11.410;2022-12-17T15:18:28;68.40;;;30.90;;
5137;SDS011;53959;53.626;11.410;2022-12-17T15:20:54;67.57;;;29.73;;
5137;SDS011;53959;53.626;11.410;2022-12-17T15:23:20;63.43;;;28.50;;
5137;SDS011;53959;53.626;11.410;2022-12-17T15:25:48;62.87;;;30.37;;
5137;SDS011;53959;53.626;11.410;2022-12-17T15:28:15;67.47;;;30.80;;
5137;SDS011;53959;53.626;11.410;2022-12-17T15:30:42;59.57;;;28.80;;
5137;SDS011;53959;53.626;11.410;2022-12-17T15:33:08;64.63;;;32.30;;
5137;SDS011;53959;53.626;11.410;2022-12-17T15:35:34;59.27;;;29.13;;
5137;SDS011;53959;53.626;11.410;2022-12-17T15:38:01;65.97;;;29.70;;
5137;SDS011;53959;53.626;11.410;2022-12-17T15:40:27;62.10;;;29.40;;
5137;SDS011;53959;53.626;11.410;2022-12-17T15:42:52;65.47;;;29.87;;
5137;SDS011;53959;53.626;11.410;2022-12-17T15:45:40;68.27;;;31.80;;
5137;SDS011;53959;53.626;11.410;2022-12-17T15:48:07;62.20;;;29.83;;
5137;SDS011;53959;53.626;11.410;2022-12-17T15:50:34;62.40;;;31.90;;
5137;SDS011;53959;53.626;11.410;2022-12-17T15:52:59;72.03;;;29.73;;
5137;SDS011;53959;53.626;11.410;2022-12-17T15:55:25;63.20;;;30.30;;
5137;SDS011;53959;53.626;11.410;2022-12-17T15:57:51;61.90;;;30.90;;
5137;SDS011;53959;53.626;11.410;2022-12-17T16:00:16;65.87;;;30.60;;
5137;SDS011;53959;53.626;11.410;2022-12-17T16:02:42;69.70;;;32.57;;
5137;SDS011;53959;53.626;11.410;2022-12-17T16:05:07;61.13;;;28.80;;
5137;SDS011;53959;53.626;11.410;2022-12-17T16:07:33;70.63;;;34.50;;
5137;SDS011;53959;53.626;11.410;2022-12-17T16:09:59;60.17;;;30.63;;
5137;SDS011;53959;53.626;11.410;2022-12-17T16:12:24;68.73;;;30.83;;
5137;SDS011;53959;53.626;11.410;2022-12-17T16:14:50;65.50;;;30.73;;
5137;SDS011;53959;53.626;11.410;2022-12-17T16:17:15;69.17;;;30.87;;
5137;SDS011;53959;53.626;11.410;2022-12-17T16:19:41;59.03;;;29.77;;
5137;SDS011;53959;53.626;11.410;2022-12-17T16:22:07;66.47;;;29.43;;
5137;SDS011;53959;53.626;11.410;2022-12-17T16:24:32;60.43;;;30.30;;
5137;SDS011;53959;53.626;11.410;2022-12-17T16:26:58;70.07;;;29.43;;
5137;SDS011;53959;53.626;11.410;2022-12-17T16:29:23;73.20;;;31.27;;
5137;SDS011;53959;53.626;11.410;2022-12-17T16:31:49;69.20;;;29.67;;
5137;SDS011;53959;53.626;11.410;2022-12-17T16:34:15;66.77;;;30.97;;
5137;SDS011;53959;53.626;11.410;2022-12-17T16:36:40;69.10;;;30.50;;
5137;SDS011;53959;53.626;11.410;2022-12-17T16:39:06;72.27;;;30.90;;
5137;SDS011;53959;53.626;11.410;2022-12-17T16:41:32;64.97;;;29.37;;
5137;SDS011;53959;53.626;11.410;2022-12-17T16:43:58;66.93;;;31.33;;
5137;SDS011;53959;53.626;11.410;2022-12-17T16:48:55;62.37;;;30.87;;
5137;SDS011;53959;53.626;11.410;2022-12-17T16:51:21;67.53;;;32.30;;
5137;SDS011;53959;53.626;11.410;2022-12-17T16:53:48;62.97;;;31.07;;
5137;SDS011;53959;53.626;11.410;2022-12-17T16:56:15;70.53;;;31.33;;
5137;SDS011;53959;53.626;11.410;2022-12-17T16:58:41;68.63;;;30.27;;
5137;SDS011;53959;53.626;11.410;2022-12-17T17:01:07;70.23;;;33.50;;
5137;SDS011;53959;53.626;11.410;2022-12-17T17:03:32;65.40;;;31.67;;
5137;SDS011;53959;53.626;11.410;2022-12-17T17:06:01;60.63;;;29.07;;
5137;SDS011;53959;53.626;11.410;2022-12-17T17:08:28;71.40;;;30.40;;
5137;SDS011;53959;53.626;11.410;2022-12-17T17:10:53;69.80;;;31.43;;
5137;SDS011;53959;53.626;11.410;2022-12-17T17:13:19;70.90;;;34.70;;
5137;SDS011;53959;53.626;11.410;2022-12-17T17:15:44;61.87;;;29.37;;